sensor_id;sensor_type;location;lat;lon;timestamp;temperature;humidity
14877;DHT22;69691;48.172;17.070;2023-05-28T00:00:33;14.10;73.10
14877;DHT22;69691;48.172;17.070;2023-05-28T00:03:00;14.10;73.20
14877;DHT22;69691;48.172;17.070;2023-05-28T00:05:26;14.10;73.30
14877;DHT22;69691;48.172;17.070;2023-05-28T00:07:52;14.00;73.20
14877;DHT22;69691;48.172;17.070;2023-05-28T00:10:18;14.00;73.30
14877;DHT22;69691;48.172;17.070;2023-05-28T00:12:43;14.00;73.30
14877;DHT22;69691;48.172;17.070;2023-05-28T00:15:09;14.00;73.10
14877;DHT22;69691;48.172;17.070;2023-05-28T00:17:36;14.00;73.00
14877;DHT22;69691;48.172;17.070;2023-05-28T00:20:02;14.00;72.90
14877;DHT22;69691;48.172;17.070;2023-05-28T00:22:29;14.00;72.90
14877;DHT22;69691;48.172;17.070;2023-05-28T00:24:55;14.10;72.90
14877;DHT22;69691;48.172;17.070;2023-05-28T00:27:21;14.00;72.70
14877;DHT22;69691;48.172;17.070;2023-05-28T00:29:46;14.00;72.80
14877;DHT22;69691;48.172;17.070;2023-05-28T00:32:12;14.00;72.90
14877;DHT22;69691;48.172;17.070;2023-05-28T00:34:38;14.00;73.00
14877;DHT22;69691;48.172;17.070;2023-05-28T00:37:04;13.90;73.10
14877;DHT22;69691;48.172;17.070;2023-05-28T00:39:30;13.90;73.10
14877;DHT22;69691;48.172;17.070;2023-05-28T00:42:01;13.90;73.20
14877;DHT22;69691;48.172;17.070;2023-05-28T00:44:30;14.00;73.40
14877;DHT22;69691;48.172;17.070;2023-05-28T00:46:59;13.90;73.20
14877;DHT22;69691;48.172;17.070;2023-05-28T00:49:25;13.90;73.30
14877;DHT22;69691;48.172;17.070;2023-05-28T00:51:54;13.90;73.50
14877;DHT22;69691;48.172;17.070;2023-05-28T00:54:22;13.90;73.60
14877;DHT22;69691;48.172;17.070;2023-05-28T00:56:48;13.80;73.50
14877;DHT22;69691;48.172;17.070;2023-05-28T00:59:17;13.80;73.70
14877;DHT22;69691;48.172;17.070;2023-05-28T01:01:43;13.80;73.90
14877;DHT22;69691;48.172;17.070;2023-05-28T01:04:08;13.80;73.80
14877;DHT22;69691;48.172;17.070;2023-05-28T01:06:35;13.70;73.80
14877;DHT22;69691;48.172;17.070;2023-05-28T01:09:06;13.70;74.00
14877;DHT22;69691;48.172;17.070;2023-05-28T01:11:34;13.70;74.40
14877;DHT22;69691;48.172;17.070;2023-05-28T01:14:02;13.70;74.40
14877;DHT22;69691;48.172;17.070;2023-05-28T01:16:28;13.60;74.20
14877;DHT22;69691;48.172;17.070;2023-05-28T01:18:56;13.60;74.40
14877;DHT22;69691;48.172;17.070;2023-05-28T01:21:26;13.60;74.80
14877;DHT22;69691;48.172;17.070;2023-05-28T01:23:57;13.60;74.80
14877;DHT22;69691;48.172;17.070;2023-05-28T01:26:24;13.50;74.60
14877;DHT22;69691;48.172;17.070;2023-05-28T01:28:52;13.60;74.60
14877;DHT22;69691;48.172;17.070;2023-05-28T01:31:18;13.60;74.70
14877;DHT22;69691;48.172;17.070;2023-05-28T01:33:44;13.50;74.70
14877;DHT22;69691;48.172;17.070;2023-05-28T01:36:30;13.50;74.80
14877;DHT22;69691;48.172;17.070;2023-05-28T01:39:00;13.50;74.80
14877;DHT22;69691;48.172;17.070;2023-05-28T01:41:28;13.50;75.60
14877;DHT22;69691;48.172;17.070;2023-05-28T01:43:55;13.50;74.90
14877;DHT22;69691;48.172;17.070;2023-05-28T01:46:22;13.50;75.00
14877;DHT22;69691;48.172;17.070;2023-05-28T01:48:49;13.50;75.10
14877;DHT22;69691;48.172;17.070;2023-05-28T01:51:21;13.40;75.00
14877;DHT22;69691;48.172;17.070;2023-05-28T01:53:47;13.40;75.30
14877;DHT22;69691;48.172;17.070;2023-05-28T01:56:13;13.40;75.40
14877;DHT22;69691;48.172;17.070;2023-05-28T01:58:40;13.40;75.50
14877;DHT22;69691;48.172;17.070;2023-05-28T02:03:53;13.30;75.60
14877;DHT22;69691;48.172;17.070;2023-05-28T02:06:21;13.30;75.80
14877;DHT22;69691;48.172;17.070;2023-05-28T02:08:47;13.30;76.00
14877;DHT22;69691;48.172;17.070;2023-05-28T02:11:13;13.30;75.90
14877;DHT22;69691;48.172;17.070;2023-05-28T02:13:39;13.30;75.90
14877;DHT22;69691;48.172;17.070;2023-05-28T02:16:07;13.20;75.90
14877;DHT22;69691;48.172;17.070;2023-05-28T02:18:36;13.20;76.20
14877;DHT22;69691;48.172;17.070;2023-05-28T02:21:03;13.10;76.30
14877;DHT22;69691;48.172;17.070;2023-05-28T02:23:29;13.10;76.30
14877;DHT22;69691;48.172;17.070;2023-05-28T02:25:55;13.10;77.10
14877;DHT22;69691;48.172;17.070;2023-05-28T02:28:21;13.10;76.30
14877;DHT22;69691;48.172;17.070;2023-05-28T02:30:47;13.10;76.30
14877;DHT22;69691;48.172;17.070;2023-05-28T02:33:15;13.10;76.50
14877;DHT22;69691;48.172;17.070;2023-05-28T02:35:41;13.10;76.40
14877;DHT22;69691;48.172;17.070;2023-05-28T02:38:07;13.10;76.70
14877;DHT22;69691;48.172;17.070;2023-05-28T02:40:33;13.10;76.70
14877;DHT22;69691;48.172;17.070;2023-05-28T02:43:00;13.00;76.70
14877;DHT22;69691;48.172;17.070;2023-05-28T02:45:26;13.00;77.00
14877;DHT22;69691;48.172;17.070;2023-05-28T02:47:52;13.00;77.00
14877;DHT22;69691;48.172;17.070;2023-05-28T02:50:21;13.00;77.10
14877;DHT22;69691;48.172;17.070;2023-05-28T02:53:03;13.00;77.10
14877;DHT22;69691;48.172;17.070;2023-05-28T02:55:29;12.90;77.10
14877;DHT22;69691;48.172;17.070;2023-05-28T02:57:55;13.00;77.10
14877;DHT22;69691;48.172;17.070;2023-05-28T03:00:22;13.00;77.10
14877;DHT22;69691;48.172;17.070;2023-05-28T03:02:48;13.00;77.10
14877;DHT22;69691;48.172;17.070;2023-05-28T03:05:14;12.90;77.20
14877;DHT22;69691;48.172;17.070;2023-05-28T03:07:40;13.00;77.40
14877;DHT22;69691;48.172;17.070;2023-05-28T03:10:06;13.00;77.40
14877;DHT22;69691;48.172;17.070;2023-05-28T03:12:34;13.00;77.50
14877;DHT22;69691;48.172;17.070;2023-05-28T03:15:00;13.00;77.50
14877;DHT22;69691;48.172;17.070;2023-05-28T03:17:26;12.90;77.40
14877;DHT22;69691;48.172;17.070;2023-05-28T03:19:51;13.00;77.60
14877;DHT22;69691;48.172;17.070;2023-05-28T03:22:20;12.90;77.40
14877;DHT22;69691;48.172;17.070;2023-05-28T03:24:46;13.00;77.40
14877;DHT22;69691;48.172;17.070;2023-05-28T03:27:13;13.00;77.30
14877;DHT22;69691;48.172;17.070;2023-05-28T03:29:39;13.10;77.40
14877;DHT22;69691;48.172;17.070;2023-05-28T03:32:31;13.10;77.40
14877;DHT22;69691;48.172;17.070;2023-05-28T03:34:57;13.10;77.40
14877;DHT22;69691;48.172;17.070;2023-05-28T03:37:28;13.10;77.30
14877;DHT22;69691;48.172;17.070;2023-05-28T03:39:54;13.20;77.10
14877;DHT22;69691;48.172;17.070;2023-05-28T03:42:21;13.30;76.80
14877;DHT22;69691;48.172;17.070;2023-05-28T03:44:47;13.30;76.50
14877;DHT22;69691;48.172;17.070;2023-05-28T03:47:13;13.30;76.50
14877;DHT22;69691;48.172;17.070;2023-05-28T03:49:39;13.40;77.40
14877;DHT22;69691;48.172;17.070;2023-05-28T03:52:05;13.40;77.30
14877;DHT22;69691;48.172;17.070;2023-05-28T03:54:41;13.40;76.40
14877;DHT22;69691;48.172;17.070;2023-05-28T03:57:06;13.40;76.10
14877;DHT22;69691;48.172;17.070;2023-05-28T03:59:34;13.50;76.10
14877;DHT22;69691;48.172;17.070;2023-05-28T04:02:01;13.60;76.00
14877;DHT22;69691;48.172;17.070;2023-05-28T04:04:27;13.60;76.30
14877;DHT22;69691;48.172;17.070;2023-05-28T04:06:53;13.70;75.40
14877;DHT22;69691;48.172;17.070;2023-05-28T04:09:19;13.80;75.10
14877;DHT22;69691;48.172;17.070;2023-05-28T04:11:45;13.80;74.90
14877;DHT22;69691;48.172;17.070;2023-05-28T04:14:13;13.90;74.80
14877;DHT22;69691;48.172;17.070;2023-05-28T04:16:39;14.00;74.60
14877;DHT22;69691;48.172;17.070;2023-05-28T04:19:05;14.10;74.30
14877;DHT22;69691;48.172;17.070;2023-05-28T04:21:31;14.10;74.30
14877;DHT22;69691;48.172;17.070;2023-05-28T04:23:59;14.20;74.00
14877;DHT22;69691;48.172;17.070;2023-05-28T04:26:25;14.20;73.50
14877;DHT22;69691;48.172;17.070;2023-05-28T04:28:52;14.30;73.40
14877;DHT22;69691;48.172;17.070;2023-05-28T04:31:19;14.30;73.00
14877;DHT22;69691;48.172;17.070;2023-05-28T04:33:45;14.30;73.70
14877;DHT22;69691;48.172;17.070;2023-05-28T04:36:12;14.40;72.90
14877;DHT22;69691;48.172;17.070;2023-05-28T04:38:39;14.40;72.60
14877;DHT22;69691;48.172;17.070;2023-05-28T04:41:07;14.50;72.50
14877;DHT22;69691;48.172;17.070;2023-05-28T04:43:33;14.50;72.90
14877;DHT22;69691;48.172;17.070;2023-05-28T04:46:01;14.50;71.60
14877;DHT22;69691;48.172;17.070;2023-05-28T04:48:30;14.60;71.60
14877;DHT22;69691;48.172;17.070;2023-05-28T04:51:01;14.60;71.50
14877;DHT22;69691;48.172;17.070;2023-05-28T04:53:29;14.60;71.20
14877;DHT22;69691;48.172;17.070;2023-05-28T04:55:55;14.70;71.10
14877;DHT22;69691;48.172;17.070;2023-05-28T04:58:21;14.80;70.80
14877;DHT22;69691;48.172;17.070;2023-05-28T05:00:47;14.90;70.70
14877;DHT22;69691;48.172;17.070;2023-05-28T05:03:13;15.00;70.20
14877;DHT22;69691;48.172;17.070;2023-05-28T05:05:40;15.10;69.90
14877;DHT22;69691;48.172;17.070;2023-05-28T05:08:07;15.20;69.80
14877;DHT22;69691;48.172;17.070;2023-05-28T05:10:34;15.50;69.10
14877;DHT22;69691;48.172;17.070;2023-05-28T05:13:00;15.80;68.70
14877;DHT22;69691;48.172;17.070;2023-05-28T05:15:27;16.30;67.50
14877;DHT22;69691;48.172;17.070;2023-05-28T05:17:55;16.70;65.70
14877;DHT22;69691;48.172;17.070;2023-05-28T05:20:22;17.20;64.00
14877;DHT22;69691;48.172;17.070;2023-05-28T05:22:48;17.50;62.90
14877;DHT22;69691;48.172;17.070;2023-05-28T05:25:14;18.10;61.00
14877;DHT22;69691;48.172;17.070;2023-05-28T05:27:43;18.40;59.70
14877;DHT22;69691;48.172;17.070;2023-05-28T05:30:09;18.60;58.60
14877;DHT22;69691;48.172;17.070;2023-05-28T05:32:36;18.90;57.90
14877;DHT22;69691;48.172;17.070;2023-05-28T05:35:02;19.10;57.20
14877;DHT22;69691;48.172;17.070;2023-05-28T05:37:46;19.30;56.50
14877;DHT22;69691;48.172;17.070;2023-05-28T05:40:21;19.50;56.20
14877;DHT22;69691;48.172;17.070;2023-05-28T05:42:50;19.70;56.00
14877;DHT22;69691;48.172;17.070;2023-05-28T05:45:17;19.90;55.30
14877;DHT22;69691;48.172;17.070;2023-05-28T05:47:43;20.20;54.70
14877;DHT22;69691;48.172;17.070;2023-05-28T05:50:11;20.30;54.30
14877;DHT22;69691;48.172;17.070;2023-05-28T05:52:42;20.40;53.90
14877;DHT22;69691;48.172;17.070;2023-05-28T05:55:08;20.50;53.70
14877;DHT22;69691;48.172;17.070;2023-05-28T05:57:34;20.70;53.80
14877;DHT22;69691;48.172;17.070;2023-05-28T06:00:06;20.90;53.20
14877;DHT22;69691;48.172;17.070;2023-05-28T06:02:39;21.10;52.90
14877;DHT22;69691;48.172;17.070;2023-05-28T06:05:27;21.30;52.10
14877;DHT22;69691;48.172;17.070;2023-05-28T06:08:09;21.50;51.50
14877;DHT22;69691;48.172;17.070;2023-05-28T06:10:54;21.70;51.00
14877;DHT22;69691;48.172;17.070;2023-05-28T06:13:21;21.80;50.80
14877;DHT22;69691;48.172;17.070;2023-05-28T06:15:46;21.90;50.50
14877;DHT22;69691;48.172;17.070;2023-05-28T06:18:13;22.10;50.20
14877;DHT22;69691;48.172;17.070;2023-05-28T06:20:40;22.40;49.90
14877;DHT22;69691;48.172;17.070;2023-05-28T06:23:07;22.60;49.80
14877;DHT22;69691;48.172;17.070;2023-05-28T06:25:33;22.60;49.30
14877;DHT22;69691;48.172;17.070;2023-05-28T06:28:01;22.60;49.60
14877;DHT22;69691;48.172;17.070;2023-05-28T06:30:27;22.60;49.20
14877;DHT22;69691;48.172;17.070;2023-05-28T06:32:53;22.80;49.00
14877;DHT22;69691;48.172;17.070;2023-05-28T06:35:19;22.90;49.00
14877;DHT22;69691;48.172;17.070;2023-05-28T06:37:45;23.10;48.60
14877;DHT22;69691;48.172;17.070;2023-05-28T06:40:11;23.20;48.00
14877;DHT22;69691;48.172;17.070;2023-05-28T06:42:37;23.40;47.70
14877;DHT22;69691;48.172;17.070;2023-05-28T06:45:09;23.50;47.30
14877;DHT22;69691;48.172;17.070;2023-05-28T06:47:35;23.60;46.80
14877;DHT22;69691;48.172;17.070;2023-05-28T06:50:01;23.80;47.00
14877;DHT22;69691;48.172;17.070;2023-05-28T06:52:28;23.90;46.70
14877;DHT22;69691;48.172;17.070;2023-05-28T06:54:54;24.10;46.50
14877;DHT22;69691;48.172;17.070;2023-05-28T06:57:21;24.20;46.40
14877;DHT22;69691;48.172;17.070;2023-05-28T06:59:49;24.30;45.10
14877;DHT22;69691;48.172;17.070;2023-05-28T07:02:26;24.30;43.70
14877;DHT22;69691;48.172;17.070;2023-05-28T07:05:03;24.20;42.30
14877;DHT22;69691;48.172;17.070;2023-05-28T07:07:33;24.30;41.70
14877;DHT22;69691;48.172;17.070;2023-05-28T07:09:59;24.40;41.60
14877;DHT22;69691;48.172;17.070;2023-05-28T07:12:25;24.60;41.00
14877;DHT22;69691;48.172;17.070;2023-05-28T07:14:54;24.70;41.00
14877;DHT22;69691;48.172;17.070;2023-05-28T07:17:21;24.60;41.10
14877;DHT22;69691;48.172;17.070;2023-05-28T07:19:48;24.70;40.70
14877;DHT22;69691;48.172;17.070;2023-05-28T07:22:18;24.80;40.80
14877;DHT22;69691;48.172;17.070;2023-05-28T07:24:44;24.80;40.60
14877;DHT22;69691;48.172;17.070;2023-05-28T07:27:10;24.90;40.80
14877;DHT22;69691;48.172;17.070;2023-05-28T07:29:36;24.80;40.60
14877;DHT22;69691;48.172;17.070;2023-05-28T07:32:03;24.80;40.90
14877;DHT22;69691;48.172;17.070;2023-05-28T07:34:32;25.10;40.90
14877;DHT22;69691;48.172;17.070;2023-05-28T07:36:58;25.00;40.50
14877;DHT22;69691;48.172;17.070;2023-05-28T07:39:24;25.00;40.70
14877;DHT22;69691;48.172;17.070;2023-05-28T07:41:51;24.90;40.60
14877;DHT22;69691;48.172;17.070;2023-05-28T07:44:23;24.80;40.90
14877;DHT22;69691;48.172;17.070;2023-05-28T07:46:49;24.70;41.30
14877;DHT22;69691;48.172;17.070;2023-05-28T07:49:38;24.70;41.20
14877;DHT22;69691;48.172;17.070;2023-05-28T07:52:06;24.70;41.20
14877;DHT22;69691;48.172;17.070;2023-05-28T07:54:33;24.80;41.40
14877;DHT22;69691;48.172;17.070;2023-05-28T07:57:00;25.00;41.10
14877;DHT22;69691;48.172;17.070;2023-05-28T07:59:30;25.00;41.50
14877;DHT22;69691;48.172;17.070;2023-05-28T08:01:58;25.10;41.30
14877;DHT22;69691;48.172;17.070;2023-05-28T08:04:23;25.00;41.30
14877;DHT22;69691;48.172;17.070;2023-05-28T08:06:49;24.90;41.50
14877;DHT22;69691;48.172;17.070;2023-05-28T08:09:17;24.90;41.30
14877;DHT22;69691;48.172;17.070;2023-05-28T08:11:46;24.90;41.20
14877;DHT22;69691;48.172;17.070;2023-05-28T08:14:13;24.90;41.70
14877;DHT22;69691;48.172;17.070;2023-05-28T08:16:42;25.00;42.10
14877;DHT22;69691;48.172;17.070;2023-05-28T08:19:36;25.10;41.90
14877;DHT22;69691;48.172;17.070;2023-05-28T08:22:06;25.20;41.10
14877;DHT22;69691;48.172;17.070;2023-05-28T08:24:33;25.00;41.10
14877;DHT22;69691;48.172;17.070;2023-05-28T08:26:59;24.80;41.20
14877;DHT22;69691;48.172;17.070;2023-05-28T08:29:26;24.50;41.80
14877;DHT22;69691;48.172;17.070;2023-05-28T08:31:59;24.30;41.90
14877;DHT22;69691;48.172;17.070;2023-05-28T08:34:38;24.20;42.00
14877;DHT22;69691;48.172;17.070;2023-05-28T08:37:05;24.20;42.50
14877;DHT22;69691;48.172;17.070;2023-05-28T08:39:42;24.20;42.30
14877;DHT22;69691;48.172;17.070;2023-05-28T08:42:08;24.20;42.50
14877;DHT22;69691;48.172;17.070;2023-05-28T08:44:34;24.30;42.60
14877;DHT22;69691;48.172;17.070;2023-05-28T08:47:01;24.30;42.50
14877;DHT22;69691;48.172;17.070;2023-05-28T08:49:51;24.30;42.50
14877;DHT22;69691;48.172;17.070;2023-05-28T08:52:21;24.20;42.50
14877;DHT22;69691;48.172;17.070;2023-05-28T08:54:48;24.20;43.20
14877;DHT22;69691;48.172;17.070;2023-05-28T08:57:15;24.20;43.20
14877;DHT22;69691;48.172;17.070;2023-05-28T08:59:48;24.30;43.50
14877;DHT22;69691;48.172;17.070;2023-05-28T09:02:14;24.40;43.10
14877;DHT22;69691;48.172;17.070;2023-05-28T09:04:41;24.30;42.90
14877;DHT22;69691;48.172;17.070;2023-05-28T09:07:12;24.20;43.10
14877;DHT22;69691;48.172;17.070;2023-05-28T09:10:05;24.30;43.30
14877;DHT22;69691;48.172;17.070;2023-05-28T09:12:35;24.30;43.00
14877;DHT22;69691;48.172;17.070;2023-05-28T09:15:04;24.20;42.90
14877;DHT22;69691;48.172;17.070;2023-05-28T09:17:38;24.20;44.00
14877;DHT22;69691;48.172;17.070;2023-05-28T09:20:13;24.30;43.70
14877;DHT22;69691;48.172;17.070;2023-05-28T09:22:40;24.20;43.70
14877;DHT22;69691;48.172;17.070;2023-05-28T09:25:21;24.10;44.60
14877;DHT22;69691;48.172;17.070;2023-05-28T09:27:58;24.10;44.00
14877;DHT22;69691;48.172;17.070;2023-05-28T09:30:26;24.00;43.60
14877;DHT22;69691;48.172;17.070;2023-05-28T09:33:10;24.00;43.50
14877;DHT22;69691;48.172;17.070;2023-05-28T09:35:36;24.10;44.20
14877;DHT22;69691;48.172;17.070;2023-05-28T09:38:04;24.10;44.40
14877;DHT22;69691;48.172;17.070;2023-05-28T09:40:40;24.20;44.10
14877;DHT22;69691;48.172;17.070;2023-05-28T09:43:08;24.20;44.20
14877;DHT22;69691;48.172;17.070;2023-05-28T09:45:34;24.20;43.70
14877;DHT22;69691;48.172;17.070;2023-05-28T09:48:01;24.20;43.50
14877;DHT22;69691;48.172;17.070;2023-05-28T09:50:27;24.20;44.00
14877;DHT22;69691;48.172;17.070;2023-05-28T09:52:57;24.20;43.90
14877;DHT22;69691;48.172;17.070;2023-05-28T09:55:26;24.20;43.90
14877;DHT22;69691;48.172;17.070;2023-05-28T09:58:05;24.30;44.10
14877;DHT22;69691;48.172;17.070;2023-05-28T10:00:45;24.40;44.50
14877;DHT22;69691;48.172;17.070;2023-05-28T10:06:21;24.50;44.40
14877;DHT22;69691;48.172;17.070;2023-05-28T10:08:51;24.50;44.20
14877;DHT22;69691;48.172;17.070;2023-05-28T10:11:24;24.50;44.20
14877;DHT22;69691;48.172;17.070;2023-05-28T10:13:54;24.40;44.10
14877;DHT22;69691;48.172;17.070;2023-05-28T10:16:20;24.40;44.30
14877;DHT22;69691;48.172;17.070;2023-05-28T10:18:46;24.40;44.60
14877;DHT22;69691;48.172;17.070;2023-05-28T10:21:12;24.50;44.90
14877;DHT22;69691;48.172;17.070;2023-05-28T10:23:42;24.60;44.50
14877;DHT22;69691;48.172;17.070;2023-05-28T10:26:09;24.60;44.50
14877;DHT22;69691;48.172;17.070;2023-05-28T10:28:35;24.60;44.20
14877;DHT22;69691;48.172;17.070;2023-05-28T10:31:06;24.70;44.40
14877;DHT22;69691;48.172;17.070;2023-05-28T10:33:37;24.80;44.50
14877;DHT22;69691;48.172;17.070;2023-05-28T10:36:17;24.70;44.40
14877;DHT22;69691;48.172;17.070;2023-05-28T10:41:20;24.60;44.10
14877;DHT22;69691;48.172;17.070;2023-05-28T10:43:49;24.60;44.10
14877;DHT22;69691;48.172;17.070;2023-05-28T10:49:09;24.70;44.20
14877;DHT22;69691;48.172;17.070;2023-05-28T10:51:58;24.80;44.70
14877;DHT22;69691;48.172;17.070;2023-05-28T10:57:14;24.70;45.20
14877;DHT22;69691;48.172;17.070;2023-05-28T10:59:44;24.80;45.10
14877;DHT22;69691;48.172;17.070;2023-05-28T11:05:03;24.90;44.60
14877;DHT22;69691;48.172;17.070;2023-05-28T11:07:38;24.90;44.90
14877;DHT22;69691;48.172;17.070;2023-05-28T11:10:10;24.90;44.20
14877;DHT22;69691;48.172;17.070;2023-05-28T11:12:39;24.90;44.30
14877;DHT22;69691;48.172;17.070;2023-05-28T11:15:10;24.90;44.60
14877;DHT22;69691;48.172;17.070;2023-05-28T11:17:42;24.90;43.90
14877;DHT22;69691;48.172;17.070;2023-05-28T11:20:22;24.90;44.00
14877;DHT22;69691;48.172;17.070;2023-05-28T11:22:53;24.90;44.20
14877;DHT22;69691;48.172;17.070;2023-05-28T11:25:20;24.90;44.40
14877;DHT22;69691;48.172;17.070;2023-05-28T11:27:48;24.90;44.40
14877;DHT22;69691;48.172;17.070;2023-05-28T11:30:19;25.10;44.60
14877;DHT22;69691;48.172;17.070;2023-05-28T11:32:47;25.10;44.00
14877;DHT22;69691;48.172;17.070;2023-05-28T11:35:15;25.10;44.30
14877;DHT22;69691;48.172;17.070;2023-05-28T11:37:43;25.10;44.60
14877;DHT22;69691;48.172;17.070;2023-05-28T11:40:11;25.10;43.90
14877;DHT22;69691;48.172;17.070;2023-05-28T11:42:39;25.10;44.10
14877;DHT22;69691;48.172;17.070;2023-05-28T11:45:06;25.10;44.20
14877;DHT22;69691;48.172;17.070;2023-05-28T11:47:34;25.10;45.20
14877;DHT22;69691;48.172;17.070;2023-05-28T11:50:07;25.20;44.50
14877;DHT22;69691;48.172;17.070;2023-05-28T11:52:34;25.30;44.70
14877;DHT22;69691;48.172;17.070;2023-05-28T11:55:01;25.40;44.80
14877;DHT22;69691;48.172;17.070;2023-05-28T11:57:30;25.40;43.90
14877;DHT22;69691;48.172;17.070;2023-05-28T12:00:00;25.50;43.60
14877;DHT22;69691;48.172;17.070;2023-05-28T12:02:49;25.60;43.60
14877;DHT22;69691;48.172;17.070;2023-05-28T12:05:17;25.70;43.30
14877;DHT22;69691;48.172;17.070;2023-05-28T12:07:52;25.70;43.50
14877;DHT22;69691;48.172;17.070;2023-05-28T12:10:25;26.10;43.50
14877;DHT22;69691;48.172;17.070;2023-05-28T12:12:55;26.40;43.20
14877;DHT22;69691;48.172;17.070;2023-05-28T12:15:30;26.70;42.60
14877;DHT22;69691;48.172;17.070;2023-05-28T12:17:59;27.00;41.50
14877;DHT22;69691;48.172;17.070;2023-05-28T12:20:52;27.10;41.30
14877;DHT22;69691;48.172;17.070;2023-05-28T12:23:20;27.30;41.20
14877;DHT22;69691;48.172;17.070;2023-05-28T12:25:50;27.40;41.60
14877;DHT22;69691;48.172;17.070;2023-05-28T12:28:21;27.50;40.80
14877;DHT22;69691;48.172;17.070;2023-05-28T12:30:50;27.60;40.60
14877;DHT22;69691;48.172;17.070;2023-05-28T12:33:19;27.70;40.50
14877;DHT22;69691;48.172;17.070;2023-05-28T12:35:46;27.70;40.40
14877;DHT22;69691;48.172;17.070;2023-05-28T12:38:13;27.80;40.40
14877;DHT22;69691;48.172;17.070;2023-05-28T12:40:40;27.90;40.90
14877;DHT22;69691;48.172;17.070;2023-05-28T12:43:07;28.00;40.60
14877;DHT22;69691;48.172;17.070;2023-05-28T12:45:33;28.10;40.80
14877;DHT22;69691;48.172;17.070;2023-05-28T12:47:59;28.20;40.30
14877;DHT22;69691;48.172;17.070;2023-05-28T12:50:25;28.20;39.90
14877;DHT22;69691;48.172;17.070;2023-05-28T12:52:51;28.30;39.80
14877;DHT22;69691;48.172;17.070;2023-05-28T12:55:17;28.50;40.00
14877;DHT22;69691;48.172;17.070;2023-05-28T12:57:44;28.60;39.60
14877;DHT22;69691;48.172;17.070;2023-05-28T13:00:10;28.80;39.60
14877;DHT22;69691;48.172;17.070;2023-05-28T13:02:39;28.90;39.10
14877;DHT22;69691;48.172;17.070;2023-05-28T13:05:06;28.80;38.80
14877;DHT22;69691;48.172;17.070;2023-05-28T13:07:32;28.90;39.00
14877;DHT22;69691;48.172;17.070;2023-05-28T13:09:59;28.80;38.80
14877;DHT22;69691;48.172;17.070;2023-05-28T13:12:24;28.70;38.90
14877;DHT22;69691;48.172;17.070;2023-05-28T13:14:51;28.60;40.10
14877;DHT22;69691;48.172;17.070;2023-05-28T13:17:16;28.60;39.60
14877;DHT22;69691;48.172;17.070;2023-05-28T13:19:45;28.40;39.90
14877;DHT22;69691;48.172;17.070;2023-05-28T13:22:13;28.30;40.00
14877;DHT22;69691;48.172;17.070;2023-05-28T13:24:39;28.10;40.90
14877;DHT22;69691;48.172;17.070;2023-05-28T13:27:05;28.00;41.30
14877;DHT22;69691;48.172;17.070;2023-05-28T13:29:32;27.80;41.20
14877;DHT22;69691;48.172;17.070;2023-05-28T13:31:58;27.70;42.50
14877;DHT22;69691;48.172;17.070;2023-05-28T13:34:23;27.60;42.50
14877;DHT22;69691;48.172;17.070;2023-05-28T13:36:49;27.60;42.20
14877;DHT22;69691;48.172;17.070;2023-05-28T13:39:17;27.50;42.80
14877;DHT22;69691;48.172;17.070;2023-05-28T13:41:48;27.50;42.10
14877;DHT22;69691;48.172;17.070;2023-05-28T13:44:17;27.40;41.90
14877;DHT22;69691;48.172;17.070;2023-05-28T13:46:43;27.40;41.70
14877;DHT22;69691;48.172;17.070;2023-05-28T13:49:09;27.30;41.80
14877;DHT22;69691;48.172;17.070;2023-05-28T13:51:35;27.20;42.00
14877;DHT22;69691;48.172;17.070;2023-05-28T13:54:01;27.10;42.80
14877;DHT22;69691;48.172;17.070;2023-05-28T13:56:27;27.10;43.90
14877;DHT22;69691;48.172;17.070;2023-05-28T13:58:52;27.00;42.90
14877;DHT22;69691;48.172;17.070;2023-05-28T14:01:18;27.00;43.40
14877;DHT22;69691;48.172;17.070;2023-05-28T14:03:44;27.00;43.10
14877;DHT22;69691;48.172;17.070;2023-05-28T14:06:11;27.00;42.80
14877;DHT22;69691;48.172;17.070;2023-05-28T14:08:37;26.90;42.60
14877;DHT22;69691;48.172;17.070;2023-05-28T14:11:03;26.90;42.70
14877;DHT22;69691;48.172;17.070;2023-05-28T14:13:29;26.80;42.50
14877;DHT22;69691;48.172;17.070;2023-05-28T14:15:58;26.80;43.00
14877;DHT22;69691;48.172;17.070;2023-05-28T14:18:24;26.70;44.20
14877;DHT22;69691;48.172;17.070;2023-05-28T14:20:50;26.70;43.40
14877;DHT22;69691;48.172;17.070;2023-05-28T14:23:16;26.70;43.90
14877;DHT22;69691;48.172;17.070;2023-05-28T14:25:41;26.70;43.20
14877;DHT22;69691;48.172;17.070;2023-05-28T14:28:07;26.60;44.70
14877;DHT22;69691;48.172;17.070;2023-05-28T14:30:33;26.50;44.70
14877;DHT22;69691;48.172;17.070;2023-05-28T14:32:59;26.40;44.70
14877;DHT22;69691;48.172;17.070;2023-05-28T14:35:25;26.40;44.50
14877;DHT22;69691;48.172;17.070;2023-05-28T14:37:51;26.30;46.80
14877;DHT22;69691;48.172;17.070;2023-05-28T14:40:18;26.20;48.00
14877;DHT22;69691;48.172;17.070;2023-05-28T14:42:44;26.20;48.90
14877;DHT22;69691;48.172;17.070;2023-05-28T14:45:11;26.10;48.90
14877;DHT22;69691;48.172;17.070;2023-05-28T14:47:37;26.00;49.80
14877;DHT22;69691;48.172;17.070;2023-05-28T14:50:04;26.00;50.40
14877;DHT22;69691;48.172;17.070;2023-05-28T14:52:31;26.00;50.90
14877;DHT22;69691;48.172;17.070;2023-05-28T14:54:58;26.00;51.50
14877;DHT22;69691;48.172;17.070;2023-05-28T14:57:25;26.00;52.30
14877;DHT22;69691;48.172;17.070;2023-05-28T15:00:03;26.00;52.70
14877;DHT22;69691;48.172;17.070;2023-05-28T15:02:35;26.10;53.00
14877;DHT22;69691;48.172;17.070;2023-05-28T15:05:02;26.10;54.10
14877;DHT22;69691;48.172;17.070;2023-05-28T15:07:31;26.00;53.50
14877;DHT22;69691;48.172;17.070;2023-05-28T15:09:57;26.00;53.40
14877;DHT22;69691;48.172;17.070;2023-05-28T15:12:24;26.00;52.70
14877;DHT22;69691;48.172;17.070;2023-05-28T15:14:50;26.10;52.70
14877;DHT22;69691;48.172;17.070;2023-05-28T15:17:16;26.10;52.30
14877;DHT22;69691;48.172;17.070;2023-05-28T15:19:42;26.20;52.40
14877;DHT22;69691;48.172;17.070;2023-05-28T15:22:08;26.30;52.20
14877;DHT22;69691;48.172;17.070;2023-05-28T15:24:34;26.30;52.50
14877;DHT22;69691;48.172;17.070;2023-05-28T15:27:01;26.40;53.10
14877;DHT22;69691;48.172;17.070;2023-05-28T15:29:28;26.50;53.20
14877;DHT22;69691;48.172;17.070;2023-05-28T15:31:55;26.60;52.80
14877;DHT22;69691;48.172;17.070;2023-05-28T15:34:22;26.70;52.00
14877;DHT22;69691;48.172;17.070;2023-05-28T15:36:48;26.80;49.10
14877;DHT22;69691;48.172;17.070;2023-05-28T15:39:14;27.00;48.40